Time;durP1;ratioP1;P1;durP2;ratioP2;P2;SDS_P1;SDS_P2;PMS_P1;PMS_P2;Temp;Humidity;BMP_temperature;BMP_pressure;BME280_temperature;BME280_humidity;BME280_pressure;Samples;Min_cycle;Max_cycle;Signal;HPM_P1;HPM_P2
2021/04/03 00:00:44;;;;;;;28.70;8.00;;;;;;;;;;4974542;28;20456;-64
2021/04/03 00:03:12;;;;;;;20.30;7.80;;;;;;;;;;4974431;28;20542;-64
2021/04/03 00:05:39;;;;;;;21.27;8.37;;;;;;;;;;4974895;28;20455;-64
2021/04/03 00:08:06;;;;;;;13.57;6.70;;;;;;;;;;4961887;28;20448;-65
2021/04/03 00:10:35;;;;;;;20.47;7.80;;;;;;;;;;4955904;29;20559;-64
2021/04/03 00:13:02;;;;;;;19.13;6.60;;;;;;;;;;4967332;28;20459;-64
2021/04/03 00:15:29;;;;;;;22.73;7.70;;;;;;;;;;4974578;28;21085;-63
2021/04/03 00:17:56;;;;;;;23.17;7.20;;;;;;;;;;4973439;28;20447;-64
2021/04/03 00:20:25;;;;;;;24.80;7.83;;;;;;;;;;4966709;28;20480;-64
2021/04/03 00:22:51;;;;;;;22.77;8.20;;;;;;;;;;4956418;28;20515;-64
2021/04/03 00:25:18;;;;;;;20.83;7.63;;;;;;;;;;4961769;28;20462;-63
2021/04/03 00:27:45;;;;;;;17.93;7.50;;;;;;;;;;4975019;28;20543;-63
2021/04/03 00:30:17;;;;;;;20.83;8.10;;;;;;;;;;4974326;28;20510;-64
2021/04/03 00:32:44;;;;;;;23.27;9.30;;;;;;;;;;4974335;28;20488;-64
2021/04/03 00:35:12;;;;;;;29.03;9.10;;;;;;;;;;4960054;28;20460;-63
2021/04/03 00:37:39;;;;;;;19.17;7.03;;;;;;;;;;4957288;29;20460;-65
2021/04/03 00:40:08;;;;;;;20.90;8.60;;;;;;;;;;4975644;28;20479;-64
2021/04/03 00:42:34;;;;;;;20.70;7.43;;;;;;;;;;4976438;28;20451;-64
2021/04/03 00:45:01;;;;;;;18.73;8.03;;;;;;;;;;4958988;28;20544;-64
2021/04/03 00:47:28;;;;;;;20.90;8.03;;;;;;;;;;4957112;28;20452;-64
2021/04/03 00:49:54;;;;;;;25.87;9.13;;;;;;;;;;4960313;28;20495;-64
2021/04/03 00:52:22;;;;;;;19.20;8.00;;;;;;;;;;4957124;29;20496;-63
2021/04/03 00:54:48;;;;;;;19.07;7.60;;;;;;;;;;4970743;28;20460;-64
2021/04/03 00:57:16;;;;;;;21.57;9.03;;;;;;;;;;4974824;28;20451;-64
2021/04/03 00:59:42;;;;;;;17.07;6.83;;;;;;;;;;4961898;28;20579;-64
2021/04/03 01:02:09;;;;;;;24.53;8.43;;;;;;;;;;4956234;29;20901;-63
2021/04/03 01:04:36;;;;;;;18.03;7.30;;;;;;;;;;4967689;28;20527;-64
2021/04/03 01:07:02;;;;;;;21.73;8.23;;;;;;;;;;4975046;28;20486;-65
2021/04/03 01:09:30;;;;;;;19.30;7.73;;;;;;;;;;4967077;28;20472;-64
2021/04/03 01:12:01;;;;;;;25.73;8.60;;;;;;;;;;4957538;29;20570;-64
2021/04/03 01:14:33;;;;;;;18.87;7.73;;;;;;;;;;4959204;28;20472;-64
2021/04/03 01:17:04;;;;;;;27.97;8.47;;;;;;;;;;4958549;29;20444;-63
2021/04/03 01:19:39;;;;;;;23.20;8.77;;;;;;;;;;4967167;28;20574;-64
2021/04/03 01:22:18;;;;;;;28.43;8.20;;;;;;;;;;4977710;28;20518;-64
2021/04/03 01:24:53;;;;;;;16.53;8.03;;;;;;;;;;4967655;28;20641;-64
2021/04/03 01:27:21;;;;;;;32.97;8.87;;;;;;;;;;4958999;29;20487;-64
2021/04/03 01:30:01;;;;;;;15.63;7.93;;;;;;;;;;4968352;28;20507;-64
2021/04/03 01:32:31;;;;;;;24.10;8.30;;;;;;;;;;4977485;28;20791;-65
2021/04/03 01:34:58;;;;;;;22.57;8.33;;;;;;;;;;4960383;28;20569;-64
2021/04/03 01:37:25;;;;;;;25.43;9.47;;;;;;;;;;4954774;29;20482;-64
2021/04/03 01:39:53;;;;;;;21.43;8.40;;;;;;;;;;4966874;28;20567;-64
2021/04/03 01:42:21;;;;;;;23.50;8.30;;;;;;;;;;4973385;28;20498;-64
2021/04/03 01:44:49;;;;;;;27.67;8.60;;;;;;;;;;4961445;28;20464;-64
2021/04/03 01:47:18;;;;;;;19.93;7.60;;;;;;;;;;4954404;28;20857;-63
2021/04/03 01:49:45;;;;;;;26.47;8.43;;;;;;;;;;4964395;28;20512;-63
2021/04/03 01:52:11;;;;;;;19.97;8.00;;;;;;;;;;4971905;28;20487;-64
2021/04/03 01:54:38;;;;;;;24.67;8.37;;;;;;;;;;4975939;28;20558;-63
2021/04/03 01:57:05;;;;;;;24.07;9.20;;;;;;;;;;4967927;28;20510;-64
2021/04/03 01:59:33;;;;;;;20.97;7.67;;;;;;;;;;4958060;28;20559;-64
2021/04/03 02:02:00;;;;;;;24.97;9.00;;;;;;;;;;4961588;28;20452;-64
2021/04/03 02:04:28;;;;;;;19.03;8.10;;;;;;;;;;4962463;28;20547;-63
2021/04/03 02:06:55;;;;;;;25.73;10.40;;;;;;;;;;4959979;29;20967;-64
2021/04/03 02:09:22;;;;;;;25.20;8.50;;;;;;;;;;4962794;28;20467;-64
2021/04/03 02:11:50;;;;;;;16.33;8.10;;;;;;;;;;4978786;28;20491;-63
2021/04/03 02:14:17;;;;;;;23.00;8.43;;;;;;;;;;4963081;28;20483;-64
2021/04/03 02:16:44;;;;;;;28.07;10.23;;;;;;;;;;4959138;29;20543;-64
2021/04/03 02:19:11;;;;;;;19.30;8.63;;;;;;;;;;4976784;28;20562;-64
2021/04/03 02:21:40;;;;;;;23.20;8.50;;;;;;;;;;4961740;28;21011;-64
2021/04/03 02:24:07;;;;;;;24.07;8.80;;;;;;;;;;4958671;29;21082;-64
2021/04/03 02:26:34;;;;;;;24.17;7.90;;;;;;;;;;4974036;28;20542;-64
2021/04/03 02:29:01;;;;;;;21.43;9.00;;;;;;;;;;4976540;28;20924;-65
2021/04/03 02:31:29;;;;;;;28.07;9.40;;;;;;;;;;4963738;28;20476;-65
2021/04/03 02:33:56;;;;;;;17.37;8.80;;;;;;;;;;4960736;29;20456;-64
2021/04/03 02:36:22;;;;;;;20.83;8.50;;;;;;;;;;4970707;28;20546;-64
2021/04/03 02:38:50;;;;;;;22.50;8.00;;;;;;;;;;4979438;28;20479;-64
2021/04/03 02:41:18;;;;;;;25.10;9.20;;;;;;;;;;4967609;28;20542;-64
2021/04/03 02:43:48;;;;;;;23.10;8.23;;;;;;;;;;4969790;28;20923;-64
2021/04/03 02:46:16;;;;;;;28.80;9.77;;;;;;;;;;4970409;28;20462;-64
2021/04/03 02:48:45;;;;;;;19.83;8.03;;;;;;;;;;4959474;29;20511;-64
2021/04/03 02:51:13;;;;;;;23.13;9.53;;;;;;;;;;4967697;28;20459;-65
2021/04/03 02:53:40;;;;;;;23.00;8.37;;;;;;;;;;4977882;28;20529;-65
2021/04/03 02:56:08;;;;;;;19.37;9.80;;;;;;;;;;4968270;28;20463;-65
2021/04/03 02:58:37;;;;;;;20.53;8.63;;;;;;;;;;4965931;28;20536;-64
2021/04/03 03:01:03;;;;;;;30.73;8.03;;;;;;;;;;4969467;28;20456;-64
2021/04/03 03:03:32;;;;;;;18.37;8.60;;;;;;;;;;4959105;29;20468;-64
2021/04/03 03:05:59;;;;;;;20.00;9.30;;;;;;;;;;4961267;28;20492;-64
2021/04/03 03:08:26;;;;;;;20.53;8.87;;;;;;;;;;4960211;29;20452;-65
2021/04/03 03:10:55;;;;;;;26.77;9.60;;;;;;;;;;4965554;28;20477;-64
2021/04/03 03:13:23;;;;;;;22.90;9.67;;;;;;;;;;4975463;28;20454;-64
2021/04/03 03:15:49;;;;;;;22.60;9.50;;;;;;;;;;4977247;28;20459;-64
2021/04/03 03:18:17;;;;;;;22.50;9.13;;;;;;;;;;4979150;28;20455;-64
2021/04/03 03:20:45;;;;;;;23.60;9.90;;;;;;;;;;4974514;28;20461;-64
2021/04/03 03:23:12;;;;;;;17.57;8.87;;;;;;;;;;4958838;29;20456;-64
2021/04/03 03:25:39;;;;;;;24.10;8.43;;;;;;;;;;4959590;28;20464;-64
2021/04/03 03:28:06;;;;;;;19.40;8.70;;;;;;;;;;4962222;28;20452;-64
2021/04/03 03:30:34;;;;;;;24.30;9.60;;;;;;;;;;4964740;28;20555;-64
2021/04/03 03:33:01;;;;;;;22.03;8.63;;;;;;;;;;4977771;28;20586;-64
2021/04/03 03:35:28;;;;;;;18.70;9.50;;;;;;;;;;4977726;28;20496;-64
2021/04/03 03:37:54;;;;;;;22.70;9.13;;;;;;;;;;4958480;28;20801;-64
2021/04/03 03:40:21;;;;;;;21.33;9.10;;;;;;;;;;4957529;28;20527;-64
2021/04/03 03:42:48;;;;;;;22.47;8.57;;;;;;;;;;4974349;28;20483;-64
2021/04/03 03:45:15;;;;;;;20.27;8.50;;;;;;;;;;4976616;28;20494;-64
2021/04/03 03:47:42;;;;;;;30.77;9.30;;;;;;;;;;4974980;28;20464;-64
2021/04/03 03:50:10;;;;;;;18.90;8.10;;;;;;;;;;4977863;28;20542;-63
2021/04/03 03:52:37;;;;;;;29.13;9.00;;;;;;;;;;4976777;28;20483;-65
2021/04/03 03:55:04;;;;;;;24.70;8.90;;;;;;;;;;4976373;28;20803;-64
2021/04/03 03:57:31;;;;;;;22.33;10.23;;;;;;;;;;4976912;28;20451;-64
2021/04/03 03:59:57;;;;;;;22.40;9.50;;;;;;;;;;4976639;28;20554;-64
2021/04/03 04:02:24;;;;;;;25.07;10.10;;;;;;;;;;4962921;28;20543;-63
2021/04/03 04:04:51;;;;;;;20.33;9.20;;;;;;;;;;4957163;29;20475;-64
2021/04/03 04:07:18;;;;;;;20.30;10.60;;;;;;;;;;4968808;28;20542;-64
2021/04/03 04:09:45;;;;;;;32.57;11.77;;;;;;;;;;4968587;28;20531;-64
2021/04/03 04:12:12;;;;;;;20.80;10.47;;;;;;;;;;4968115;28;20578;-64
2021/04/03 04:14:38;;;;;;;22.40;10.77;;;;;;;;;;4976561;28;20973;-64
2021/04/03 04:17:05;;;;;;;19.57;10.30;;;;;;;;;;4967090;28;21091;-64
2021/04/03 04:19:32;;;;;;;20.70;11.10;;;;;;;;;;4960525;28;20544;-63
2021/04/03 04:22:01;;;;;;;23.77;10.33;;;;;;;;;;4976949;28;20543;-64
2021/04/03 04:24:27;;;;;;;23.13;10.63;;;;;;;;;;4975346;28;20532;-64
2021/04/03 04:26:54;;;;;;;19.60;10.63;;;;;;;;;;4975598;28;20873;-63
2021/04/03 04:29:21;;;;;;;21.90;9.70;;;;;;;;;;4974521;28;20502;-64
2021/04/03 04:31:47;;;;;;;22.07;10.70;;;;;;;;;;4956602;29;20551;-64
2021/04/03 04:34:14;;;;;;;16.93;10.60;;;;;;;;;;4956443;29;21007;-63
2021/04/03 04:36:41;;;;;;;20.57;11.03;;;;;;;;;;4973947;28;20747;-64
2021/04/03 04:39:08;;;;;;;17.70;10.53;;;;;;;;;;4959208;28;20555;-64
2021/04/03 04:41:36;;;;;;;19.70;10.90;;;;;;;;;;4956000;29;20484;-64
2021/04/03 04:44:03;;;;;;;20.03;11.40;;;;;;;;;;4956325;28;20488;-65
2021/04/03 04:46:30;;;;;;;22.93;11.23;;;;;;;;;;4970912;28;20523;-64
2021/04/03 04:48:56;;;;;;;21.73;10.77;;;;;;;;;;4962253;28;20488;-64
2021/04/03 04:51:24;;;;;;;17.70;10.27;;;;;;;;;;4959676;28;20540;-63
2021/04/03 04:53:51;;;;;;;23.83;10.80;;;;;;;;;;4956912;28;20510;-64
2021/04/03 04:56:18;;;;;;;23.63;10.73;;;;;;;;;;4957787;29;21032;-64
2021/04/03 04:58:45;;;;;;;18.40;9.97;;;;;;;;;;4975019;28;20558;-65
2021/04/03 05:01:11;;;;;;;17.77;11.10;;;;;;;;;;4975155;28;20834;-65
2021/04/03 05:03:38;;;;;;;19.87;10.63;;;;;;;;;;4957696;28;20452;-65
2021/04/03 05:06:05;;;;;;;17.30;10.70;;;;;;;;;;4955996;29;20455;-64
2021/04/03 05:08:31;;;;;;;16.73;10.20;;;;;;;;;;4972262;28;21030;-64
2021/04/03 05:10:58;;;;;;;20.90;10.83;;;;;;;;;;4974442;28;20467;-65
2021/04/03 05:13:25;;;;;;;13.30;9.40;;;;;;;;;;4959858;28;20572;-65
2021/04/03 05:15:54;;;;;;;19.20;10.97;;;;;;;;;;4957137;29;20463;-64
2021/04/03 05:18:21;;;;;;;21.07;10.37;;;;;;;;;;4971198;28;21009;-64
2021/04/03 05:20:47;;;;;;;14.77;9.23;;;;;;;;;;4976254;28;20486;-65
2021/04/03 05:23:16;;;;;;;17.17;10.17;;;;;;;;;;4962515;28;20540;-65
2021/04/03 05:25:43;;;;;;;20.93;9.33;;;;;;;;;;4957172;28;20460;-64
2021/04/03 05:28:10;;;;;;;16.53;8.60;;;;;;;;;;4968476;28;20868;-64
2021/04/03 05:30:37;;;;;;;14.30;8.83;;;;;;;;;;4976991;28;20481;-64
2021/04/03 05:33:04;;;;;;;16.07;9.13;;;;;;;;;;4964486;28;20502;-64
2021/04/03 05:35:30;;;;;;;16.50;9.30;;;;;;;;;;4956030;28;20452;-65
2021/04/03 05:37:57;;;;;;;16.67;8.83;;;;;;;;;;4962522;28;20542;-64
2021/04/03 05:40:24;;;;;;;8.30;4.60;;;;;;;;;;4972380;28;20487;-64
2021/04/03 05:42:53;;;;;;;22.27;5.53;;;;;;;;;;4966356;28;20540;-64
2021/04/03 05:45:20;;;;;;;10.70;4.37;;;;;;;;;;4962361;28;20719;-63
2021/04/03 05:47:47;;;;;;;8.50;4.13;;;;;;;;;;4979947;28;20526;-61
2021/04/03 05:50:14;;;;;;;11.93;4.87;;;;;;;;;;5015582;23;21674;-67
2021/04/03 05:52:41;;;;;;;6.20;4.13;;;;;;;;;;4986953;28;20992;-65
2021/04/03 05:55:08;;;;;;;8.13;3.63;;;;;;;;;;4982895;28;20570;-71
2021/04/03 05:57:36;;;;;;;6.07;4.33;;;;;;;;;;4984050;28;20539;-65
2021/04/03 06:00:02;;;;;;;4.43;3.30;;;;;;;;;;4986833;28;20581;-66
2021/04/03 06:02:34;;;;;;;4.83;3.10;;;;;;;;;;4981576;28;20467;-65
2021/04/03 06:05:02;;;;;;;4.70;3.20;;;;;;;;;;4972354;28;20452;-65
2021/04/03 06:07:28;;;;;;;5.93;3.20;;;;;;;;;;4971820;28;20464;-67
2021/04/03 06:09:55;;;;;;;3.97;2.80;;;;;;;;;;4968393;28;21006;-65
2021/04/03 06:12:37;;;;;;;8.60;3.53;;;;;;;;;;4965525;28;20491;-68
2021/04/03 06:15:04;;;;;;;6.53;2.80;;;;;;;;;;4970878;28;20463;-64
2021/04/03 06:17:31;;;;;;;4.63;2.60;;;;;;;;;;4967036;28;20892;-68
2021/04/03 06:19:57;;;;;;;4.80;2.90;;;;;;;;;;4967091;28;20859;-65
2021/04/03 06:22:25;;;;;;;4.70;2.73;;;;;;;;;;4972199;28;20534;-66
2021/04/03 06:25:03;;;;;;;4.47;2.73;;;;;;;;;;4968213;28;20963;-65
2021/04/03 06:27:30;;;;;;;5.03;3.00;;;;;;;;;;4965837;28;20558;-65
2021/04/03 06:29:57;;;;;;;3.40;2.97;;;;;;;;;;4970590;28;20495;-65
2021/04/03 06:32:26;;;;;;;5.37;2.93;;;;;;;;;;4972510;28;20559;-65
2021/04/03 06:34:53;;;;;;;4.87;3.47;;;;;;;;;;4971341;28;20529;-65
2021/04/03 06:37:26;;;;;;;3.57;2.20;;;;;;;;;;4983298;28;20455;-65
2021/04/03 06:39:57;;;;;;;4.27;2.57;;;;;;;;;;4969507;28;20495;-65
2021/04/03 06:42:37;;;;;;;5.23;2.80;;;;;;;;;;4970828;28;20526;-65
2021/04/03 06:45:18;;;;;;;3.20;2.40;;;;;;;;;;4971418;28;20529;-67
2021/04/03 06:47:46;;;;;;;3.27;2.10;;;;;;;;;;4953144;28;20962;-64
2021/04/03 06:50:14;;;;;;;3.40;2.63;;;;;;;;;;4971424;28;21024;-65
2021/04/03 06:52:42;;;;;;;5.30;2.70;;;;;;;;;;4969391;28;20475;-64
2021/04/03 06:55:10;;;;;;;6.50;2.70;;;;;;;;;;4969599;28;20471;-65
2021/04/03 06:57:36;;;;;;;3.00;2.23;;;;;;;;;;4972755;28;20494;-66
2021/04/03 07:00:04;;;;;;;3.83;2.63;;;;;;;;;;4973153;28;20471;-65
2021/04/03 07:02:32;;;;;;;3.23;2.50;;;;;;;;;;4970432;28;20465;-64
2021/04/03 07:05:01;;;;;;;3.43;2.37;;;;;;;;;;4975730;28;20447;-65
2021/04/03 07:07:29;;;;;;;3.00;2.23;;;;;;;;;;4974771;28;20804;-65
2021/04/03 07:09:56;;;;;;;4.23;2.20;;;;;;;;;;4975188;28;20537;-65
2021/04/03 07:12:24;;;;;;;4.10;2.30;;;;;;;;;;4976350;28;20545;-65
2021/04/03 07:14:51;;;;;;;4.13;2.20;;;;;;;;;;4978256;28;20455;-65
2021/04/03 07:17:17;;;;;;;3.27;2.20;;;;;;;;;;4975212;28;20455;-65
2021/04/03 07:19:45;;;;;;;3.10;2.00;;;;;;;;;;4974150;28;20467;-68
2021/04/03 07:22:13;;;;;;;4.00;2.20;;;;;;;;;;4972860;28;20447;-68
2021/04/03 07:24:41;;;;;;;3.50;1.80;;;;;;;;;;4974838;28;20542;-68
2021/04/03 07:27:09;;;;;;;4.07;1.70;;;;;;;;;;4955870;29;20543;-66
2021/04/03 07:29:49;;;;;;;2.87;1.73;;;;;;;;;;4982827;28;20474;-66
2021/04/03 07:32:37;;;;;;;3.67;1.80;;;;;;;;;;4974387;28;20490;-67
2021/04/03 07:35:14;;;;;;;3.10;2.00;;;;;;;;;;4974220;28;20460;-64
2021/04/03 07:37:41;;;;;;;4.83;1.80;;;;;;;;;;4974892;28;20477;-68
2021/04/03 07:40:08;;;;;;;2.20;1.90;;;;;;;;;;4974915;28;20479;-65
2021/04/03 07:42:37;;;;;;;4.30;2.10;;;;;;;;;;4974661;28;20439;-65
2021/04/03 07:45:04;;;;;;;4.07;1.87;;;;;;;;;;4974351;28;20550;-64
2021/04/03 07:47:46;;;;;;;2.20;1.53;;;;;;;;;;4974250;28;20530;-63
2021/04/03 07:50:12;;;;;;;10.77;1.80;;;;;;;;;;4973228;28;20491;-63
2021/04/03 07:52:54;;;;;;;4.70;2.03;;;;;;;;;;4974272;28;20884;-66
2021/04/03 07:55:30;;;;;;;3.90;1.67;;;;;;;;;;4974560;28;20443;-68
2021/04/03 07:58:12;;;;;;;2.43;1.60;;;;;;;;;;4974284;28;20501;-66
2021/04/03 08:00:39;;;;;;;6.70;1.70;;;;;;;;;;4971299;28;20471;-64
2021/04/03 08:03:06;;;;;;;4.77;2.37;;;;;;;;;;4973807;28;20528;-65
2021/04/03 08:05:33;;;;;;;2.00;1.23;;;;;;;;;;4972821;28;20463;-66
2021/04/03 08:08:00;;;;;;;3.13;1.37;;;;;;;;;;4973821;28;20449;-65
2021/04/03 08:10:27;;;;;;;4.10;1.60;;;;;;;;;;4974432;28;20502;-66
2021/04/03 08:12:55;;;;;;;4.20;1.57;;;;;;;;;;4977296;28;20509;-67
2021/04/03 08:15:22;;;;;;;2.47;1.47;;;;;;;;;;4973579;28;20502;-65
2021/04/03 08:17:53;;;;;;;2.80;1.30;;;;;;;;;;4973600;28;20499;-67
2021/04/03 08:20:20;;;;;;;3.73;1.47;;;;;;;;;;4973986;28;20840;-68
2021/04/03 08:22:58;;;;;;;2.73;1.40;;;;;;;;;;4973788;28;20450;-68
2021/04/03 08:25:24;;;;;;;2.20;1.37;;;;;;;;;;4973038;28;20448;-67
2021/04/03 08:27:51;;;;;;;3.13;1.60;;;;;;;;;;4973878;28;20452;-67
2021/04/03 08:30:21;;;;;;;7.57;1.80;;;;;;;;;;4973734;28;20490;-66
2021/04/03 08:33:08;;;;;;;10.73;1.67;;;;;;;;;;4973806;28;20760;-67
2021/04/03 08:35:35;;;;;;;3.80;1.57;;;;;;;;;;4973660;28;20494;-67
2021/04/03 08:38:16;;;;;;;4.33;1.50;;;;;;;;;;4972903;28;20842;-68
2021/04/03 08:40:43;;;;;;;2.37;1.40;;;;;;;;;;4973737;28;20518;-67
2021/04/03 08:43:16;;;;;;;3.23;1.50;;;;;;;;;;4973748;28;20447;-66
2021/04/03 08:45:43;;;;;;;2.27;1.13;;;;;;;;;;4973241;28;20451;-67
2021/04/03 08:48:11;;;;;;;3.10;1.50;;;;;;;;;;4973823;28;20458;-67
2021/04/03 08:50:38;;;;;;;2.50;1.40;;;;;;;;;;4973120;28;20534;-67
2021/04/03 08:53:05;;;;;;;1.63;1.20;;;;;;;;;;4972824;28;20483;-67
2021/04/03 08:55:32;;;;;;;2.07;1.23;;;;;;;;;;4973396;28;20463;-67
2021/04/03 08:57:59;;;;;;;1.83;1.10;;;;;;;;;;4973645;28;20627;-67
2021/04/03 09:00:26;;;;;;;3.53;1.30;;;;;;;;;;4973057;28;20479;-68
2021/04/03 09:02:55;;;;;;;2.60;0.90;;;;;;;;;;4973164;28;21022;-67
2021/04/03 09:05:22;;;;;;;2.60;1.10;;;;;;;;;;4972682;28;20458;-67
2021/04/03 09:07:49;;;;;;;2.20;1.43;;;;;;;;;;4972788;28;20466;-68
2021/04/03 09:10:17;;;;;;;2.50;1.30;;;;;;;;;;4972472;28;20486;-68
2021/04/03 09:12:44;;;;;;;1.10;0.87;;;;;;;;;;4975441;28;20486;-67
2021/04/03 09:15:12;;;;;;;3.60;1.43;;;;;;;;;;4972960;28;20495;-68
2021/04/03 09:17:49;;;;;;;1.90;1.03;;;;;;;;;;4972898;28;20474;-67
2021/04/03 09:20:20;;;;;;;2.37;1.20;;;;;;;;;;4953685;29;20483;-69
2021/04/03 09:22:48;;;;;;;1.57;0.73;;;;;;;;;;4961688;28;20452;-68
2021/04/03 09:25:15;;;;;;;3.53;1.20;;;;;;;;;;4973036;28;20525;-68
2021/04/03 09:27:42;;;;;;;1.80;1.10;;;;;;;;;;4971994;28;20993;-68
2021/04/03 09:30:11;;;;;;;2.03;1.03;;;;;;;;;;4972555;28;20973;-68
2021/04/03 09:32:41;;;;;;;1.73;1.00;;;;;;;;;;4972895;28;20549;-68
2021/04/03 09:35:08;;;;;;;1.40;1.00;;;;;;;;;;4972352;28;20551;-69
2021/04/03 09:37:35;;;;;;;1.97;1.10;;;;;;;;;;4970716;28;20538;-68
2021/04/03 09:40:04;;;;;;;2.47;1.20;;;;;;;;;;4972327;28;20502;-67
2021/04/03 09:42:31;;;;;;;3.10;1.37;;;;;;;;;;4972487;28;20860;-68
2021/04/03 09:44:58;;;;;;;2.00;1.13;;;;;;;;;;4972196;28;20452;-69
2021/04/03 09:47:25;;;;;;;1.87;0.93;;;;;;;;;;4972251;28;20448;-68
2021/04/03 09:49:52;;;;;;;1.87;1.10;;;;;;;;;;4971799;28;20475;-68
2021/04/03 09:52:20;;;;;;;1.60;1.00;;;;;;;;;;4971596;28;21029;-67
2021/04/03 09:54:47;;;;;;;3.00;1.30;;;;;;;;;;4972114;28;20901;-67
2021/04/03 09:57:15;;;;;;;2.80;1.23;;;;;;;;;;4971586;28;20457;-67
2021/04/03 09:59:42;;;;;;;2.10;1.00;;;;;;;;;;4971768;28;20447;-69
2021/04/03 10:02:09;;;;;;;3.07;1.20;;;;;;;;;;4972102;28;20534;-66
2021/04/03 10:04:35;;;;;;;1.27;0.90;;;;;;;;;;4953078;28;20456;-68
2021/04/03 10:07:02;;;;;;;2.93;1.33;;;;;;;;;;4965031;28;20452;-70
2021/04/03 10:09:30;;;;;;;2.40;1.23;;;;;;;;;;4971036;28;20530;-68
2021/04/03 10:11:57;;;;;;;1.20;0.80;;;;;;;;;;4973445;28;22410;-70
2021/04/03 10:14:25;;;;;;;2.50;1.10;;;;;;;;;;4976807;28;20999;-66
2021/04/03 10:16:52;;;;;;;1.87;0.90;;;;;;;;;;4971377;28;20939;-67
2021/04/03 10:19:19;;;;;;;3.83;1.00;;;;;;;;;;4972794;28;20846;-69
2021/04/03 10:21:46;;;;;;;1.80;1.00;;;;;;;;;;4971142;28;20471;-68
2021/04/03 10:24:12;;;;;;;2.00;1.00;;;;;;;;;;4975212;28;20451;-68
2021/04/03 10:26:39;;;;;;;6.60;1.10;;;;;;;;;;4975760;28;20463;-67
2021/04/03 10:29:06;;;;;;;1.63;0.97;;;;;;;;;;4976073;28;21002;-68
2021/04/03 10:31:33;;;;;;;5.13;0.90;;;;;;;;;;4975498;28;20575;-70
2021/04/03 10:34:00;;;;;;;12.70;1.70;;;;;;;;;;4976200;28;20478;-69
2021/04/03 10:36:27;;;;;;;2.27;1.27;;;;;;;;;;4975269;28;20586;-69
2021/04/03 10:38:53;;;;;;;9.30;1.93;;;;;;;;;;4975798;28;20458;-69
2021/04/03 10:41:20;;;;;;;1.73;1.10;;;;;;;;;;4975766;28;20897;-68
2021/04/03 10:43:47;;;;;;;2.90;1.45;;;;;;;;;;4974737;28;20449;-67
2021/04/03 10:46:14;;;;;;;2.33;1.30;;;;;;;;;;4973938;28;20204;-69
2021/04/03 10:48:41;;;;;;;3.50;1.43;;;;;;;;;;4975784;28;20966;-67
2021/04/03 10:51:08;;;;;;;3.83;1.43;;;;;;;;;;4973255;28;20884;-69
2021/04/03 10:53:34;;;;;;;2.60;1.47;;;;;;;;;;4975515;28;20602;-69
2021/04/03 10:56:01;;;;;;;7.43;1.80;;;;;;;;;;4975138;28;20477;-69
2021/04/03 10:58:28;;;;;;;6.43;1.40;;;;;;;;;;4975524;28;20448;-69
2021/04/03 11:00:54;;;;;;;5.80;2.07;;;;;;;;;;4975433;28;20481;-69
2021/04/03 11:03:21;;;;;;;3.53;1.50;;;;;;;;;;4975282;28;20954;-69
2021/04/03 11:05:49;;;;;;;4.90;1.33;;;;;;;;;;4961306;28;20518;-67
2021/04/03 11:08:16;;;;;;;3.37;1.40;;;;;;;;;;4968250;28;20539;-69
2021/04/03 11:10:42;;;;;;;3.97;1.60;;;;;;;;;;4975146;28;20502;-69
2021/04/03 11:13:09;;;;;;;1.50;1.17;;;;;;;;;;4977401;28;20487;-69
2021/04/03 11:15:36;;;;;;;2.10;1.60;;;;;;;;;;4972077;28;21016;-69
2021/04/03 11:18:02;;;;;;;2.77;1.20;;;;;;;;;;4975209;28;20447;-69
2021/04/03 11:20:29;;;;;;;3.90;1.90;;;;;;;;;;4974288;28;20471;-68
2021/04/03 11:22:57;;;;;;;2.20;1.60;;;;;;;;;;4974450;28;20538;-65
2021/04/03 11:25:24;;;;;;;2.70;1.40;;;;;;;;;;4974929;28;20456;-67
2021/04/03 11:27:50;;;;;;;1.77;1.37;;;;;;;;;;4974290;28;20954;-67
2021/04/03 11:30:17;;;;;;;1.83;1.53;;;;;;;;;;4975015;28;20490;-67
2021/04/03 11:32:45;;;;;;;4.30;1.60;;;;;;;;;;4971507;28;20495;-69
2021/04/03 11:35:12;;;;;;;2.30;1.67;;;;;;;;;;4964397;28;20491;-66
2021/04/03 11:37:39;;;;;;;4.00;1.63;;;;;;;;;;4974078;28;20460;-67
2021/04/03 11:40:08;;;;;;;2.00;1.50;;;;;;;;;;4975113;28;20483;-69
2021/04/03 11:42:34;;;;;;;2.30;1.50;;;;;;;;;;4973699;28;20462;-68
2021/04/03 11:45:01;;;;;;;3.07;1.67;;;;;;;;;;4974647;28;20511;-67
2021/04/03 11:47:28;;;;;;;3.10;1.73;;;;;;;;;;4974738;28;20455;-67
2021/04/03 11:49:57;;;;;;;3.00;1.67;;;;;;;;;;4974002;28;20475;-66
2021/04/03 11:52:23;;;;;;;1.77;1.40;;;;;;;;;;4974766;28;20491;-66
2021/04/03 11:54:50;;;;;;;2.73;1.50;;;;;;;;;;4974634;28;20943;-66
2021/04/03 11:57:18;;;;;;;3.10;1.70;;;;;;;;;;4974337;28;20462;-66
2021/04/03 11:59:45;;;;;;;2.20;1.70;;;;;;;;;;4974416;28;20473;-66
2021/04/03 12:02:12;;;;;;;3.00;1.33;;;;;;;;;;4974322;28;20542;-66
2021/04/03 12:04:38;;;;;;;1.40;1.30;;;;;;;;;;4973795;28;20951;-66
2021/04/03 12:07:05;;;;;;;2.50;1.80;;;;;;;;;;4974061;28;20478;-65
2021/04/03 12:09:32;;;;;;;4.63;1.40;;;;;;;;;;4962740;28;20591;-65
2021/04/03 12:11:59;;;;;;;1.70;1.30;;;;;;;;;;4955067;29;20558;-65
2021/04/03 12:14:26;;;;;;;2.03;1.80;;;;;;;;;;4989893;28;20455;-66
2021/04/03 12:16:53;;;;;;;3.03;2.20;;;;;;;;;;4993750;28;20454;-65
2021/04/03 12:19:19;;;;;;;3.90;1.53;;;;;;;;;;4989023;28;20461;-67
2021/04/03 12:21:46;;;;;;;3.90;2.27;;;;;;;;;;4973982;28;20467;-65
2021/04/03 12:24:13;;;;;;;2.57;2.27;;;;;;;;;;4973485;28;20478;-65
2021/04/03 12:26:39;;;;;;;2.00;1.80;;;;;;;;;;4972794;28;21025;-66
2021/04/03 12:29:06;;;;;;;2.13;1.57;;;;;;;;;;4973224;28;20554;-65
2021/04/03 12:31:33;;;;;;;2.90;2.30;;;;;;;;;;4973813;28;20475;-65
2021/04/03 12:34:00;;;;;;;2.03;1.10;;;;;;;;;;4973604;28;20490;-66
2021/04/03 12:36:27;;;;;;;3.37;1.27;;;;;;;;;;4973160;28;20455;-68
2021/04/03 12:38:53;;;;;;;2.03;0.93;;;;;;;;;;4973407;28;20574;-67
2021/04/03 12:41:20;;;;;;;3.70;1.33;;;;;;;;;;4973092;28;20483;-67
2021/04/03 12:43:47;;;;;;;2.27;1.30;;;;;;;;;;4973185;28;20983;-66
2021/04/03 12:46:13;;;;;;;2.90;1.63;;;;;;;;;;4972902;28;20447;-66
2021/04/03 12:48:41;;;;;;;2.20;1.50;;;;;;;;;;4972664;28;20502;-66
2021/04/03 12:51:08;;;;;;;2.93;1.80;;;;;;;;;;4972586;28;20571;-66
2021/04/03 12:53:35;;;;;;;2.70;1.27;;;;;;;;;;4972919;28;20479;-67
2021/04/03 12:56:01;;;;;;;3.17;1.50;;;;;;;;;;4972816;28;20466;-66
2021/04/03 12:58:28;;;;;;;6.00;1.53;;;;;;;;;;4972892;28;20992;-66
2021/04/03 13:00:55;;;;;;;2.80;1.50;;;;;;;;;;4972297;28;20479;-67
2021/04/03 13:03:22;;;;;;;4.13;1.57;;;;;;;;;;4972612;28;20455;-67
2021/04/03 13:05:49;;;;;;;2.40;1.47;;;;;;;;;;4973207;28;20455;-66
2021/04/03 13:08:16;;;;;;;2.20;1.40;;;;;;;;;;4972574;28;20578;-66
2021/04/03 13:10:42;;;;;;;2.30;1.43;;;;;;;;;;4973031;28;20467;-66
2021/04/03 13:13:09;;;;;;;2.70;1.37;;;;;;;;;;4973904;28;20483;-67
2021/04/03 13:15:36;;;;;;;2.67;1.77;;;;;;;;;;4972615;28;20455;-66
2021/04/03 13:18:02;;;;;;;3.40;1.33;;;;;;;;;;4972088;28;20535;-66
2021/04/03 13:20:29;;;;;;;4.83;1.83;;;;;;;;;;4972874;28;20483;-68
2021/04/03 13:22:57;;;;;;;3.20;1.43;;;;;;;;;;4973333;28;20482;-67
2021/04/03 13:25:24;;;;;;;2.50;1.43;;;;;;;;;;4972355;28;20802;-66
2021/04/03 13:27:50;;;;;;;2.87;1.47;;;;;;;;;;4972432;28;20836;-66
2021/04/03 13:30:20;;;;;;;2.43;1.50;;;;;;;;;;4972113;28;20558;-67
2021/04/03 13:32:47;;;;;;;2.97;2.00;;;;;;;;;;4968403;28;20484;-66
2021/04/03 13:35:14;;;;;;;2.40;2.00;;;;;;;;;;4971980;28;20821;-65
2021/04/03 13:37:40;;;;;;;2.90;2.37;;;;;;;;;;4963420;28;20936;-65
2021/04/03 13:40:09;;;;;;;3.20;2.40;;;;;;;;;;4972614;28;20482;-65
2021/04/03 13:42:35;;;;;;;3.50;2.10;;;;;;;;;;4970476;28;20973;-67
2021/04/03 13:45:02;;;;;;;3.53;2.30;;;;;;;;;;4972691;28;20948;-65
2021/04/03 13:47:29;;;;;;;4.23;2.57;;;;;;;;;;4972934;28;20510;-65
2021/04/03 13:49:56;;;;;;;2.80;2.60;;;;;;;;;;4971093;28;20629;-65
2021/04/03 13:52:22;;;;;;;2.90;2.30;;;;;;;;;;4972901;28;20471;-66
2021/04/03 13:54:49;;;;;;;2.97;2.67;;;;;;;;;;4972068;28;20521;-65
2021/04/03 13:57:17;;;;;;;3.23;2.80;;;;;;;;;;4971598;28;21141;-65
2021/04/03 13:59:43;;;;;;;3.20;2.90;;;;;;;;;;4971707;28;20455;-65
2021/04/03 14:02:10;;;;;;;3.00;2.70;;;;;;;;;;4971316;28;20463;-65
2021/04/03 14:04:37;;;;;;;3.37;2.90;;;;;;;;;;4972536;28;20452;-65
2021/04/03 14:07:04;;;;;;;3.40;3.10;;;;;;;;;;4971731;28;20495;-66
2021/04/03 14:09:31;;;;;;;4.40;2.80;;;;;;;;;;4972510;28;20939;-65
2021/04/03 14:11:58;;;;;;;3.87;3.03;;;;;;;;;;4971810;28;21023;-66
2021/04/03 14:14:25;;;;;;;4.33;3.57;;;;;;;;;;4979286;28;20487;-67
2021/04/03 14:16:52;;;;;;;4.03;3.60;;;;;;;;;;4971978;28;20894;-64
2021/04/03 14:19:18;;;;;;;3.37;2.70;;;;;;;;;;4971993;28;20451;-68
2021/04/03 14:21:45;;;;;;;2.80;2.53;;;;;;;;;;4971997;28;20479;-66
2021/04/03 14:24:12;;;;;;;3.97;2.70;;;;;;;;;;4971883;28;20546;-66
2021/04/03 14:26:38;;;;;;;3.30;2.40;;;;;;;;;;4971789;28;20458;-67
2021/04/03 14:29:05;;;;;;;3.10;2.80;;;;;;;;;;4971840;28;20451;-67
2021/04/03 14:31:33;;;;;;;3.30;2.90;;;;;;;;;;4967837;28;21061;-63
2021/04/03 14:34:00;;;;;;;3.90;3.03;;;;;;;;;;4972175;28;20483;-64
2021/04/03 14:36:27;;;;;;;3.33;3.03;;;;;;;;;;4972003;28;20452;-67
2021/04/03 14:38:53;;;;;;;3.13;2.80;;;;;;;;;;4971628;28;20455;-64